sensor_id;sensor_type;location;lat;lon;timestamp;P1;durP1;ratioP1;P2;durP2;ratioP2
8094;SDS011;4090;49.270;8.696;2022-07-30T00:00:49;2.65;;;2.45;;
8094;SDS011;4090;49.270;8.696;2022-07-30T00:03:32;3.33;;;3.03;;
8094;SDS011;4090;49.270;8.696;2022-07-30T00:06:15;2.85;;;2.63;;
8094;SDS011;4090;49.270;8.696;2022-07-30T00:08:57;3.00;;;2.70;;
8094;SDS011;4090;49.270;8.696;2022-07-30T00:11:39;3.20;;;2.80;;
8094;SDS011;4090;49.270;8.696;2022-07-30T00:14:21;4.90;;;3.13;;
8094;SDS011;4090;49.270;8.696;2022-07-30T00:17:03;5.88;;;3.97;;
8094;SDS011;4090;49.270;8.696;2022-07-30T00:19:45;6.07;;;3.85;;
8094;SDS011;4090;49.270;8.696;2022-07-30T00:22:28;6.57;;;3.83;;
8094;SDS011;4090;49.270;8.696;2022-07-30T00:25:10;4.15;;;3.38;;
8094;SDS011;4090;49.270;8.696;2022-07-30T00:27:52;4.93;;;3.55;;
8094;SDS011;4090;49.270;8.696;2022-07-30T00:30:34;6.60;;;3.97;;
8094;SDS011;4090;49.270;8.696;2022-07-30T00:33:17;5.65;;;4.53;;
8094;SDS011;4090;49.270;8.696;2022-07-30T00:35:59;4.40;;;3.70;;
8094;SDS011;4090;49.270;8.696;2022-07-30T00:38:42;5.57;;;4.18;;
8094;SDS011;4090;49.270;8.696;2022-07-30T00:41:24;6.30;;;4.30;;
8094;SDS011;4090;49.270;8.696;2022-07-30T00:44:06;4.50;;;4.03;;
8094;SDS011;4090;49.270;8.696;2022-07-30T00:46:48;6.00;;;4.55;;
8094;SDS011;4090;49.270;8.696;2022-07-30T00:49:30;5.65;;;4.13;;
8094;SDS011;4090;49.270;8.696;2022-07-30T00:52:12;4.90;;;4.30;;
8094;SDS011;4090;49.270;8.696;2022-07-30T00:54:56;5.32;;;4.05;;
8094;SDS011;4090;49.270;8.696;2022-07-30T00:57:38;5.80;;;4.00;;
8094;SDS011;4090;49.270;8.696;2022-07-30T01:00:20;7.32;;;4.50;;
8094;SDS011;4090;49.270;8.696;2022-07-30T01:03:02;5.45;;;4.28;;
8094;SDS011;4090;49.270;8.696;2022-07-30T01:05:44;5.80;;;4.57;;
8094;SDS011;4090;49.270;8.696;2022-07-30T01:08:26;5.68;;;4.20;;
8094;SDS011;4090;49.270;8.696;2022-07-30T01:11:10;7.45;;;4.30;;
8094;SDS011;4090;49.270;8.696;2022-07-30T01:13:56;6.35;;;4.15;;
8094;SDS011;4090;49.270;8.696;2022-07-30T01:16:38;4.82;;;3.63;;
8094;SDS011;4090;49.270;8.696;2022-07-30T01:19:23;6.30;;;4.25;;
8094;SDS011;4090;49.270;8.696;2022-07-30T01:22:32;5.88;;;4.22;;
8094;SDS011;4090;49.270;8.696;2022-07-30T01:25:23;6.68;;;4.60;;
8094;SDS011;4090;49.270;8.696;2022-07-30T01:28:15;6.72;;;4.10;;
8094;SDS011;4090;49.270;8.696;2022-07-30T01:31:01;4.65;;;3.72;;
8094;SDS011;4090;49.270;8.696;2022-07-30T01:33:44;5.63;;;4.45;;
8094;SDS011;4090;49.270;8.696;2022-07-30T01:36:29;5.10;;;3.95;;
8094;SDS011;4090;49.270;8.696;2022-07-30T01:39:11;5.60;;;4.10;;
8094;SDS011;4090;49.270;8.696;2022-07-30T01:41:55;5.40;;;4.10;;
8094;SDS011;4090;49.270;8.696;2022-07-30T01:44:39;5.65;;;4.45;;
8094;SDS011;4090;49.270;8.696;2022-07-30T01:47:22;5.18;;;4.50;;
8094;SDS011;4090;49.270;8.696;2022-07-30T01:50:08;5.22;;;4.50;;
8094;SDS011;4090;49.270;8.696;2022-07-30T01:52:53;5.53;;;4.28;;
8094;SDS011;4090;49.270;8.696;2022-07-30T01:55:38;7.25;;;4.57;;
8094;SDS011;4090;49.270;8.696;2022-07-30T01:58:22;6.88;;;4.20;;
8094;SDS011;4090;49.270;8.696;2022-07-30T02:01:10;7.93;;;4.47;;
8094;SDS011;4090;49.270;8.696;2022-07-30T02:03:52;7.40;;;5.30;;
8094;SDS011;4090;49.270;8.696;2022-07-30T02:06:36;6.38;;;4.90;;
8094;SDS011;4090;49.270;8.696;2022-07-30T02:09:33;6.93;;;4.93;;
8094;SDS011;4090;49.270;8.696;2022-07-30T02:12:23;8.25;;;4.57;;
8094;SDS011;4090;49.270;8.696;2022-07-30T02:15:13;5.60;;;4.32;;
8094;SDS011;4090;49.270;8.696;2022-07-30T02:18:01;10.52;;;4.97;;
8094;SDS011;4090;49.270;8.696;2022-07-30T02:20:47;6.28;;;5.05;;
8094;SDS011;4090;49.270;8.696;2022-07-30T02:23:34;6.35;;;4.75;;
8094;SDS011;4090;49.270;8.696;2022-07-30T02:26:20;6.53;;;5.00;;
8094;SDS011;4090;49.270;8.696;2022-07-30T02:29:04;6.82;;;4.75;;
8094;SDS011;4090;49.270;8.696;2022-07-30T02:31:48;7.72;;;5.22;;
8094;SDS011;4090;49.270;8.696;2022-07-30T02:34:32;6.97;;;5.35;;
8094;SDS011;4090;49.270;8.696;2022-07-30T02:37:19;6.38;;;4.97;;
8094;SDS011;4090;49.270;8.696;2022-07-30T02:40:03;7.20;;;5.03;;
8094;SDS011;4090;49.270;8.696;2022-07-30T02:42:46;7.70;;;4.90;;
8094;SDS011;4090;49.270;8.696;2022-07-30T02:45:33;7.10;;;5.55;;
8094;SDS011;4090;49.270;8.696;2022-07-30T02:48:17;7.07;;;4.82;;
8094;SDS011;4090;49.270;8.696;2022-07-30T02:51:04;9.85;;;5.30;;
8094;SDS011;4090;49.270;8.696;2022-07-30T02:53:48;6.68;;;5.68;;
8094;SDS011;4090;49.270;8.696;2022-07-30T02:56:31;8.00;;;5.40;;
8094;SDS011;4090;49.270;8.696;2022-07-30T02:59:15;5.43;;;4.75;;
8094;SDS011;4090;49.270;8.696;2022-07-30T03:01:59;6.72;;;4.85;;
8094;SDS011;4090;49.270;8.696;2022-07-30T03:04:42;10.25;;;4.80;;
8094;SDS011;4090;49.270;8.696;2022-07-30T03:07:25;9.80;;;5.10;;
8094;SDS011;4090;49.270;8.696;2022-07-30T03:10:08;7.85;;;5.05;;
8094;SDS011;4090;49.270;8.696;2022-07-30T03:12:54;5.97;;;5.20;;
8094;SDS011;4090;49.270;8.696;2022-07-30T03:15:37;9.32;;;4.82;;
8094;SDS011;4090;49.270;8.696;2022-07-30T03:18:24;5.53;;;4.47;;
8094;SDS011;4090;49.270;8.696;2022-07-30T03:21:12;6.95;;;4.60;;
8094;SDS011;4090;49.270;8.696;2022-07-30T03:23:57;5.68;;;4.30;;
8094;SDS011;4090;49.270;8.696;2022-07-30T03:26:42;6.43;;;4.50;;
8094;SDS011;4090;49.270;8.696;2022-07-30T03:29:27;6.55;;;4.60;;
8094;SDS011;4090;49.270;8.696;2022-07-30T03:32:10;5.82;;;4.20;;
8094;SDS011;4090;49.270;8.696;2022-07-30T03:34:53;7.07;;;4.43;;
8094;SDS011;4090;49.270;8.696;2022-07-30T03:37:38;6.53;;;4.13;;
8094;SDS011;4090;49.270;8.696;2022-07-30T03:40:22;6.63;;;4.07;;
8094;SDS011;4090;49.270;8.696;2022-07-30T03:43:05;5.32;;;4.32;;
8094;SDS011;4090;49.270;8.696;2022-07-30T03:45:48;5.55;;;4.40;;
8094;SDS011;4090;49.270;8.696;2022-07-30T03:48:33;6.70;;;4.10;;
8094;SDS011;4090;49.270;8.696;2022-07-30T03:51:16;5.40;;;4.13;;
8094;SDS011;4090;49.270;8.696;2022-07-30T03:53:58;4.68;;;4.00;;
8094;SDS011;4090;49.270;8.696;2022-07-30T03:56:48;5.57;;;4.20;;
8094;SDS011;4090;49.270;8.696;2022-07-30T03:59:41;5.63;;;4.07;;
8094;SDS011;4090;49.270;8.696;2022-07-30T04:02:24;7.75;;;4.18;;
8094;SDS011;4090;49.270;8.696;2022-07-30T04:05:35;5.55;;;3.90;;
8094;SDS011;4090;49.270;8.696;2022-07-30T04:08:17;6.22;;;4.53;;
8094;SDS011;4090;49.270;8.696;2022-07-30T04:11:00;8.75;;;4.25;;
8094;SDS011;4090;49.270;8.696;2022-07-30T04:13:58;4.63;;;4.18;;
8094;SDS011;4090;49.270;8.696;2022-07-30T04:16:42;5.50;;;4.28;;
8094;SDS011;4090;49.270;8.696;2022-07-30T04:19:32;5.07;;;4.10;;
8094;SDS011;4090;49.270;8.696;2022-07-30T04:22:18;4.75;;;4.18;;
8094;SDS011;4090;49.270;8.696;2022-07-30T04:25:03;5.50;;;4.07;;
8094;SDS011;4090;49.270;8.696;2022-07-30T04:27:46;5.47;;;4.03;;
8094;SDS011;4090;49.270;8.696;2022-07-30T04:30:30;7.13;;;4.10;;
8094;SDS011;4090;49.270;8.696;2022-07-30T04:33:14;6.63;;;4.13;;
8094;SDS011;4090;49.270;8.696;2022-07-30T04:36:11;10.73;;;4.60;;
8094;SDS011;4090;49.270;8.696;2022-07-30T04:38:53;7.57;;;4.25;;
8094;SDS011;4090;49.270;8.696;2022-07-30T04:41:35;4.45;;;3.85;;
8094;SDS011;4090;49.270;8.696;2022-07-30T04:44:36;6.70;;;4.22;;
8094;SDS011;4090;49.270;8.696;2022-07-30T04:47:36;5.28;;;4.13;;
8094;SDS011;4090;49.270;8.696;2022-07-30T04:50:40;6.30;;;3.97;;
8094;SDS011;4090;49.270;8.696;2022-07-30T04:53:26;9.52;;;4.50;;
8094;SDS011;4090;49.270;8.696;2022-07-30T04:56:13;5.60;;;4.22;;
8094;SDS011;4090;49.270;8.696;2022-07-30T04:58:56;7.55;;;4.72;;
8094;SDS011;4090;49.270;8.696;2022-07-30T05:01:39;7.85;;;4.65;;
8094;SDS011;4090;49.270;8.696;2022-07-30T05:04:24;8.98;;;4.70;;
8094;SDS011;4090;49.270;8.696;2022-07-30T05:07:10;8.85;;;4.90;;
8094;SDS011;4090;49.270;8.696;2022-07-30T05:09:54;6.97;;;4.53;;
8094;SDS011;4090;49.270;8.696;2022-07-30T05:12:35;8.75;;;4.72;;
8094;SDS011;4090;49.270;8.696;2022-07-30T05:15:18;5.95;;;4.63;;
8094;SDS011;4090;49.270;8.696;2022-07-30T05:18:00;6.05;;;4.63;;
8094;SDS011;4090;49.270;8.696;2022-07-30T05:20:45;11.68;;;4.90;;
8094;SDS011;4090;49.270;8.696;2022-07-30T05:23:35;8.50;;;4.85;;
8094;SDS011;4090;49.270;8.696;2022-07-30T05:26:27;8.40;;;4.45;;
8094;SDS011;4090;49.270;8.696;2022-07-30T05:29:10;8.27;;;4.82;;
8094;SDS011;4090;49.270;8.696;2022-07-30T05:31:59;8.75;;;4.88;;
8094;SDS011;4090;49.270;8.696;2022-07-30T05:34:40;8.93;;;4.75;;
8094;SDS011;4090;49.270;8.696;2022-07-30T05:37:24;9.65;;;4.70;;
8094;SDS011;4090;49.270;8.696;2022-07-30T05:40:06;5.93;;;4.88;;
8094;SDS011;4090;49.270;8.696;2022-07-30T05:43:06;5.22;;;4.63;;
8094;SDS011;4090;49.270;8.696;2022-07-30T05:45:48;6.38;;;4.30;;
8094;SDS011;4090;49.270;8.696;2022-07-30T05:48:30;10.85;;;4.97;;
8094;SDS011;4090;49.270;8.696;2022-07-30T05:51:14;8.50;;;5.05;;
8094;SDS011;4090;49.270;8.696;2022-07-30T05:53:59;7.25;;;4.90;;
8094;SDS011;4090;49.270;8.696;2022-07-30T05:56:58;5.70;;;5.10;;
8094;SDS011;4090;49.270;8.696;2022-07-30T05:59:46;6.28;;;4.65;;
8094;SDS011;4090;49.270;8.696;2022-07-30T06:02:45;8.25;;;4.65;;
8094;SDS011;4090;49.270;8.696;2022-07-30T06:05:47;5.28;;;4.63;;
8094;SDS011;4090;49.270;8.696;2022-07-30T06:08:29;8.75;;;5.05;;
8094;SDS011;4090;49.270;8.696;2022-07-30T06:11:12;9.90;;;5.10;;
8094;SDS011;4090;49.270;8.696;2022-07-30T06:13:55;11.20;;;5.30;;
8094;SDS011;4090;49.270;8.696;2022-07-30T06:16:37;8.10;;;4.65;;
8094;SDS011;4090;49.270;8.696;2022-07-30T06:19:19;6.65;;;4.80;;
8094;SDS011;4090;49.270;8.696;2022-07-30T06:22:02;13.77;;;5.28;;
8094;SDS011;4090;49.270;8.696;2022-07-30T06:24:44;10.15;;;4.78;;
8094;SDS011;4090;49.270;8.696;2022-07-30T06:27:32;7.38;;;4.63;;
8094;SDS011;4090;49.270;8.696;2022-07-30T06:30:15;8.43;;;5.05;;
8094;SDS011;4090;49.270;8.696;2022-07-30T06:32:57;7.13;;;4.88;;
8094;SDS011;4090;49.270;8.696;2022-07-30T06:35:39;9.38;;;4.65;;
8094;SDS011;4090;49.270;8.696;2022-07-30T06:38:21;7.28;;;4.38;;
8094;SDS011;4090;49.270;8.696;2022-07-30T06:41:10;8.82;;;4.20;;
8094;SDS011;4090;49.270;8.696;2022-07-30T06:44:05;6.47;;;4.45;;
8094;SDS011;4090;49.270;8.696;2022-07-30T06:47:07;5.38;;;4.38;;
8094;SDS011;4090;49.270;8.696;2022-07-30T06:49:51;6.47;;;4.70;;
8094;SDS011;4090;49.270;8.696;2022-07-30T06:52:33;5.82;;;4.35;;
8094;SDS011;4090;49.270;8.696;2022-07-30T06:55:15;10.13;;;4.88;;
8094;SDS011;4090;49.270;8.696;2022-07-30T06:58:01;6.10;;;4.47;;
8094;SDS011;4090;49.270;8.696;2022-07-30T07:01:05;8.07;;;4.28;;
8094;SDS011;4090;49.270;8.696;2022-07-30T07:03:47;10.15;;;4.50;;
8094;SDS011;4090;49.270;8.696;2022-07-30T07:06:29;6.75;;;4.78;;
8094;SDS011;4090;49.270;8.696;2022-07-30T07:09:12;6.45;;;4.45;;
8094;SDS011;4090;49.270;8.696;2022-07-30T07:12:04;5.75;;;4.18;;
8094;SDS011;4090;49.270;8.696;2022-07-30T07:14:46;7.32;;;4.60;;
8094;SDS011;4090;49.270;8.696;2022-07-30T07:17:30;7.70;;;4.82;;
8094;SDS011;4090;49.270;8.696;2022-07-30T07:20:18;9.30;;;5.05;;
8094;SDS011;4090;49.270;8.696;2022-07-30T07:23:05;9.50;;;4.75;;
8094;SDS011;4090;49.270;8.696;2022-07-30T07:25:47;7.85;;;4.00;;
8094;SDS011;4090;49.270;8.696;2022-07-30T07:28:28;10.65;;;4.43;;
8094;SDS011;4090;49.270;8.696;2022-07-30T07:31:11;6.35;;;4.43;;
8094;SDS011;4090;49.270;8.696;2022-07-30T07:33:54;6.15;;;4.10;;
8094;SDS011;4090;49.270;8.696;2022-07-30T07:36:36;7.07;;;4.50;;
8094;SDS011;4090;49.270;8.696;2022-07-30T07:39:18;5.75;;;4.30;;
8094;SDS011;4090;49.270;8.696;2022-07-30T07:42:01;8.07;;;4.93;;
8094;SDS011;4090;49.270;8.696;2022-07-30T07:44:44;6.47;;;4.43;;
8094;SDS011;4090;49.270;8.696;2022-07-30T07:47:26;6.72;;;4.82;;
8094;SDS011;4090;49.270;8.696;2022-07-30T07:50:21;9.38;;;4.97;;
8094;SDS011;4090;49.270;8.696;2022-07-30T07:53:05;9.75;;;5.15;;
8094;SDS011;4090;49.270;8.696;2022-07-30T07:55:47;12.38;;;4.45;;
8094;SDS011;4090;49.270;8.696;2022-07-30T07:58:29;11.40;;;6.10;;
8094;SDS011;4090;49.270;8.696;2022-07-30T08:01:13;8.93;;;5.03;;
8094;SDS011;4090;49.270;8.696;2022-07-30T08:04:13;6.70;;;4.55;;
8094;SDS011;4090;49.270;8.696;2022-07-30T08:07:15;7.22;;;5.20;;
8094;SDS011;4090;49.270;8.696;2022-07-30T08:10:29;8.77;;;4.88;;
8094;SDS011;4090;49.270;8.696;2022-07-30T08:13:30;12.10;;;4.85;;
8094;SDS011;4090;49.270;8.696;2022-07-30T08:16:31;8.38;;;4.50;;
8094;SDS011;4090;49.270;8.696;2022-07-30T08:19:39;5.90;;;4.70;;
8094;SDS011;4090;49.270;8.696;2022-07-30T08:22:30;5.60;;;4.00;;
8094;SDS011;4090;49.270;8.696;2022-07-30T08:25:12;10.77;;;4.53;;
8094;SDS011;4090;49.270;8.696;2022-07-30T08:27:54;8.00;;;5.07;;
8094;SDS011;4090;49.270;8.696;2022-07-30T08:30:37;6.05;;;4.43;;
8094;SDS011;4090;49.270;8.696;2022-07-30T08:33:19;7.65;;;4.72;;
8094;SDS011;4090;49.270;8.696;2022-07-30T08:36:01;8.68;;;5.28;;
8094;SDS011;4090;49.270;8.696;2022-07-30T08:38:45;5.43;;;4.20;;
8094;SDS011;4090;49.270;8.696;2022-07-30T08:41:26;5.70;;;4.13;;
8094;SDS011;4090;49.270;8.696;2022-07-30T08:44:11;6.78;;;4.35;;
8094;SDS011;4090;49.270;8.696;2022-07-30T08:46:54;6.25;;;4.47;;
8094;SDS011;4090;49.270;8.696;2022-07-30T08:50:03;9.20;;;4.60;;
8094;SDS011;4090;49.270;8.696;2022-07-30T08:52:50;7.53;;;4.07;;
8094;SDS011;4090;49.270;8.696;2022-07-30T08:55:36;7.47;;;4.10;;
8094;SDS011;4090;49.270;8.696;2022-07-30T08:58:22;9.60;;;4.05;;
8094;SDS011;4090;49.270;8.696;2022-07-30T09:01:09;6.68;;;4.18;;
8094;SDS011;4090;49.270;8.696;2022-07-30T09:03:51;7.13;;;4.28;;
8094;SDS011;4090;49.270;8.696;2022-07-30T09:06:32;4.88;;;3.85;;
8094;SDS011;4090;49.270;8.696;2022-07-30T09:09:17;5.93;;;3.30;;
8094;SDS011;4090;49.270;8.696;2022-07-30T09:12:01;6.65;;;3.53;;
8094;SDS011;4090;49.270;8.696;2022-07-30T09:14:44;7.28;;;3.45;;
8094;SDS011;4090;49.270;8.696;2022-07-30T09:17:45;4.07;;;3.17;;
8094;SDS011;4090;49.270;8.696;2022-07-30T09:20:29;10.10;;;3.97;;
8094;SDS011;4090;49.270;8.696;2022-07-30T09:23:13;6.22;;;3.70;;
8094;SDS011;4090;49.270;8.696;2022-07-30T09:26:31;5.70;;;3.20;;
8094;SDS011;4090;49.270;8.696;2022-07-30T09:29:58;5.95;;;3.70;;
8094;SDS011;4090;49.270;8.696;2022-07-30T09:32:59;5.45;;;3.55;;
8094;SDS011;4090;49.270;8.696;2022-07-30T09:36:17;5.60;;;3.47;;
8094;SDS011;4090;49.270;8.696;2022-07-30T09:39:32;7.90;;;3.72;;
8094;SDS011;4090;49.270;8.696;2022-07-30T09:42:35;6.20;;;3.08;;
8094;SDS011;4090;49.270;8.696;2022-07-30T09:45:23;5.40;;;2.95;;
8094;SDS011;4090;49.270;8.696;2022-07-30T09:48:05;7.28;;;3.60;;
8094;SDS011;4090;49.270;8.696;2022-07-30T09:51:01;6.68;;;3.35;;
8094;SDS011;4090;49.270;8.696;2022-07-30T09:53:53;5.95;;;3.20;;
8094;SDS011;4090;49.270;8.696;2022-07-30T09:56:36;3.28;;;2.97;;
8094;SDS011;4090;49.270;8.696;2022-07-30T09:59:25;7.93;;;3.50;;
8094;SDS011;4090;49.270;8.696;2022-07-30T10:02:10;5.65;;;3.45;;
8094;SDS011;4090;49.270;8.696;2022-07-30T10:05:12;4.40;;;3.10;;
8094;SDS011;4090;49.270;8.696;2022-07-30T10:07:56;5.25;;;3.15;;
8094;SDS011;4090;49.270;8.696;2022-07-30T10:10:39;6.07;;;2.97;;
8094;SDS011;4090;49.270;8.696;2022-07-30T10:13:21;6.75;;;2.92;;
8094;SDS011;4090;49.270;8.696;2022-07-30T10:16:04;4.13;;;3.05;;
8094;SDS011;4090;49.270;8.696;2022-07-30T10:18:48;7.13;;;3.13;;
8094;SDS011;4090;49.270;8.696;2022-07-30T10:21:49;4.72;;;3.22;;
8094;SDS011;4090;49.270;8.696;2022-07-30T10:24:49;10.25;;;3.40;;
8094;SDS011;4090;49.270;8.696;2022-07-30T10:27:33;5.13;;;2.70;;
8094;SDS011;4090;49.270;8.696;2022-07-30T10:30:20;5.53;;;3.10;;
8094;SDS011;4090;49.270;8.696;2022-07-30T10:33:02;3.38;;;2.90;;
8094;SDS011;4090;49.270;8.696;2022-07-30T10:35:46;5.78;;;2.90;;
8094;SDS011;4090;49.270;8.696;2022-07-30T10:38:29;4.03;;;2.95;;
8094;SDS011;4090;49.270;8.696;2022-07-30T10:41:23;3.67;;;2.85;;
8094;SDS011;4090;49.270;8.696;2022-07-30T10:44:30;4.20;;;3.03;;
8094;SDS011;4090;49.270;8.696;2022-07-30T10:47:25;9.77;;;2.85;;
8094;SDS011;4090;49.270;8.696;2022-07-30T10:50:08;4.78;;;3.33;;
8094;SDS011;4090;49.270;8.696;2022-07-30T10:52:55;3.38;;;2.85;;
8094;SDS011;4090;49.270;8.696;2022-07-30T10:55:40;3.72;;;2.40;;
8094;SDS011;4090;49.270;8.696;2022-07-30T10:58:22;3.40;;;2.53;;
8094;SDS011;4090;49.270;8.696;2022-07-30T11:01:03;3.25;;;2.70;;
8094;SDS011;4090;49.270;8.696;2022-07-30T11:03:46;4.70;;;2.47;;
8094;SDS011;4090;49.270;8.696;2022-07-30T11:10:13;4.45;;;2.63;;
8094;SDS011;4090;49.270;8.696;2022-07-30T11:13:14;4.93;;;3.00;;
8094;SDS011;4090;49.270;8.696;2022-07-30T11:15:56;4.63;;;2.95;;
8094;SDS011;4090;49.270;8.696;2022-07-30T11:21:57;4.88;;;2.80;;
8094;SDS011;4090;49.270;8.696;2022-07-30T11:25:04;5.50;;;2.53;;
8094;SDS011;4090;49.270;8.696;2022-07-30T11:27:46;3.92;;;2.58;;
8094;SDS011;4090;49.270;8.696;2022-07-30T11:30:30;2.72;;;2.42;;
8094;SDS011;4090;49.270;8.696;2022-07-30T11:33:20;2.72;;;2.50;;
8094;SDS011;4090;49.270;8.696;2022-07-30T11:36:04;4.20;;;2.63;;
8094;SDS011;4090;49.270;8.696;2022-07-30T11:38:54;4.65;;;2.40;;
8094;SDS011;4090;49.270;8.696;2022-07-30T11:41:38;4.55;;;2.50;;
8094;SDS011;4090;49.270;8.696;2022-07-30T11:44:24;3.47;;;2.50;;
8094;SDS011;4090;49.270;8.696;2022-07-30T11:47:06;3.80;;;2.88;;
8094;SDS011;4090;49.270;8.696;2022-07-30T11:49:48;4.00;;;2.33;;
8094;SDS011;4090;49.270;8.696;2022-07-30T11:52:30;3.17;;;2.10;;
8094;SDS011;4090;49.270;8.696;2022-07-30T11:55:13;3.58;;;2.42;;
8094;SDS011;4090;49.270;8.696;2022-07-30T11:58:05;4.22;;;2.30;;
8094;SDS011;4090;49.270;8.696;2022-07-30T12:00:47;4.97;;;2.10;;
8094;SDS011;4090;49.270;8.696;2022-07-30T12:03:30;3.47;;;2.47;;
8094;SDS011;4090;49.270;8.696;2022-07-30T12:06:13;2.97;;;2.25;;
8094;SDS011;4090;49.270;8.696;2022-07-30T12:08:57;4.65;;;2.40;;
8094;SDS011;4090;49.270;8.696;2022-07-30T12:11:39;4.15;;;2.70;;
8094;SDS011;4090;49.270;8.696;2022-07-30T12:14:23;3.58;;;2.40;;
8094;SDS011;4090;49.270;8.696;2022-07-30T12:17:05;3.55;;;2.40;;
8094;SDS011;4090;49.270;8.696;2022-07-30T12:19:47;4.63;;;2.10;;
8094;SDS011;4090;49.270;8.696;2022-07-30T12:22:30;4.20;;;2.47;;
8094;SDS011;4090;49.270;8.696;2022-07-30T12:25:13;3.63;;;2.30;;
8094;SDS011;4090;49.270;8.696;2022-07-30T12:27:55;5.20;;;2.60;;
8094;SDS011;4090;49.270;8.696;2022-07-30T12:30:38;3.80;;;2.20;;
8094;SDS011;4090;49.270;8.696;2022-07-30T12:33:21;3.88;;;2.08;;
8094;SDS011;4090;49.270;8.696;2022-07-30T12:36:04;2.97;;;2.42;;
8094;SDS011;4090;49.270;8.696;2022-07-30T12:38:47;3.95;;;2.13;;
8094;SDS011;4090;49.270;8.696;2022-07-30T12:41:41;3.20;;;2.10;;
8094;SDS011;4090;49.270;8.696;2022-07-30T12:44:37;5.07;;;2.30;;
8094;SDS011;4090;49.270;8.696;2022-07-30T12:47:22;5.07;;;2.30;;
8094;SDS011;4090;49.270;8.696;2022-07-30T12:50:14;4.63;;;2.22;;
8094;SDS011;4090;49.270;8.696;2022-07-30T12:52:57;5.30;;;2.25;;
8094;SDS011;4090;49.270;8.696;2022-07-30T12:55:39;3.78;;;1.83;;
8094;SDS011;4090;49.270;8.696;2022-07-30T12:58:21;2.20;;;2.00;;
8094;SDS011;4090;49.270;8.696;2022-07-30T13:01:02;3.20;;;2.20;;
8094;SDS011;4090;49.270;8.696;2022-07-30T13:03:46;3.72;;;2.05;;
8094;SDS011;4090;49.270;8.696;2022-07-30T13:06:28;2.47;;;1.92;;
8094;SDS011;4090;49.270;8.696;2022-07-30T13:09:16;2.28;;;1.95;;
8094;SDS011;4090;49.270;8.696;2022-07-30T13:11:59;5.00;;;2.40;;
8094;SDS011;4090;49.270;8.696;2022-07-30T13:14:41;2.47;;;2.28;;
8094;SDS011;4090;49.270;8.696;2022-07-30T13:17:23;2.00;;;1.90;;
8094;SDS011;4090;49.270;8.696;2022-07-30T13:20:07;2.20;;;2.00;;
8094;SDS011;4090;49.270;8.696;2022-07-30T13:22:50;6.18;;;2.22;;
8094;SDS011;4090;49.270;8.696;2022-07-30T13:25:32;6.32;;;2.20;;
8094;SDS011;4090;49.270;8.696;2022-07-30T13:28:13;5.30;;;2.00;;
8094;SDS011;4090;49.270;8.696;2022-07-30T13:30:55;3.05;;;2.20;;
8094;SDS011;4090;49.270;8.696;2022-07-30T13:33:38;2.22;;;2.13;;
8094;SDS011;4090;49.270;8.696;2022-07-30T13:36:21;4.68;;;2.20;;
8094;SDS011;4090;49.270;8.696;2022-07-30T13:39:03;2.50;;;2.00;;
8094;SDS011;4090;49.270;8.696;2022-07-30T13:41:45;2.88;;;2.15;;
8094;SDS011;4090;49.270;8.696;2022-07-30T13:44:27;2.67;;;2.20;;
8094;SDS011;4090;49.270;8.696;2022-07-30T13:47:09;2.13;;;2.03;;
8094;SDS011;4090;49.270;8.696;2022-07-30T13:49:51;3.33;;;1.90;;
8094;SDS011;4090;49.270;8.696;2022-07-30T13:52:34;2.33;;;2.10;;
8094;SDS011;4090;49.270;8.696;2022-07-30T13:55:16;2.10;;;1.90;;
8094;SDS011;4090;49.270;8.696;2022-07-30T13:57:58;3.58;;;2.00;;
8094;SDS011;4090;49.270;8.696;2022-07-30T14:00:40;5.75;;;2.10;;
8094;SDS011;4090;49.270;8.696;2022-07-30T14:03:24;2.20;;;2.00;;
8094;SDS011;4090;49.270;8.696;2022-07-30T14:06:06;3.70;;;1.77;;
8094;SDS011;4090;49.270;8.696;2022-07-30T14:08:49;2.50;;;2.30;;
8094;SDS011;4090;49.270;8.696;2022-07-30T14:11:31;2.22;;;1.95;;
8094;SDS011;4090;49.270;8.696;2022-07-30T14:14:12;3.85;;;2.13;;
8094;SDS011;4090;49.270;8.696;2022-07-30T14:16:54;2.05;;;1.90;;
8094;SDS011;4090;49.270;8.696;2022-07-30T14:19:36;4.22;;;2.33;;
8094;SDS011;4090;49.270;8.696;2022-07-30T14:22:18;2.17;;;1.88;;
8094;SDS011;4090;49.270;8.696;2022-07-30T14:25:02;2.80;;;1.85;;
8094;SDS011;4090;49.270;8.696;2022-07-30T14:27:44;1.90;;;1.80;;
8094;SDS011;4090;49.270;8.696;2022-07-30T14:30:26;2.30;;;1.77;;
8094;SDS011;4090;49.270;8.696;2022-07-30T14:33:09;3.95;;;2.10;;
8094;SDS011;4090;49.270;8.696;2022-07-30T14:35:51;2.00;;;1.90;;
8094;SDS011;4090;49.270;8.696;2022-07-30T14:38:33;3.20;;;2.03;;
8094;SDS011;4090;49.270;8.696;2022-07-30T14:41:16;2.30;;;1.98;;
8094;SDS011;4090;49.270;8.696;2022-07-30T14:43:58;3.35;;;2.13;;
8094;SDS011;4090;49.270;8.696;2022-07-30T14:46:40;4.40;;;1.90;;
8094;SDS011;4090;49.270;8.696;2022-07-30T14:49:22;2.83;;;1.88;;
8094;SDS011;4090;49.270;8.696;2022-07-30T14:52:04;3.50;;;2.03;;
8094;SDS011;4090;49.270;8.696;2022-07-30T14:54:46;4.10;;;1.90;;
8094;SDS011;4090;49.270;8.696;2022-07-30T14:57:30;2.75;;;2.03;;
8094;SDS011;4090;49.270;8.696;2022-07-30T15:00:12;2.47;;;2.13;;
8094;SDS011;4090;49.270;8.696;2022-07-30T15:02:54;2.78;;;1.80;;
8094;SDS011;4090;49.270;8.696;2022-07-30T15:05:36;1.80;;;1.70;;
8094;SDS011;4090;49.270;8.696;2022-07-30T15:08:18;2.22;;;2.00;;
8094;SDS011;4090;49.270;8.696;2022-07-30T15:11:00;2.03;;;1.90;;
8094;SDS011;4090;49.270;8.696;2022-07-30T15:13:44;2.22;;;2.03;;
8094;SDS011;4090;49.270;8.696;2022-07-30T15:16:26;3.53;;;2.05;;
8094;SDS011;4090;49.270;8.696;2022-07-30T15:19:08;3.67;;;2.00;;
8094;SDS011;4090;49.270;8.696;2022-07-30T15:21:50;1.98;;;1.83;;
8094;SDS011;4090;49.270;8.696;2022-07-30T15:24:32;5.50;;;1.90;;
8094;SDS011;4090;49.270;8.696;2022-07-30T15:27:14;2.90;;;1.70;;
8094;SDS011;4090;49.270;8.696;2022-07-30T15:29:57;3.08;;;1.67;;
8094;SDS011;4090;49.270;8.696;2022-07-30T15:32:40;4.75;;;1.70;;
8094;SDS011;4090;49.270;8.696;2022-07-30T15:35:21;3.00;;;1.80;;
8094;SDS011;4090;49.270;8.696;2022-07-30T15:38:03;5.25;;;1.88;;
8094;SDS011;4090;49.270;8.696;2022-07-30T15:40:45;2.22;;;2.05;;
8094;SDS011;4090;49.270;8.696;2022-07-30T15:43:27;2.22;;;1.60;;
8094;SDS011;4090;49.270;8.696;2022-07-30T15:46:10;3.03;;;1.90;;
8094;SDS011;4090;49.270;8.696;2022-07-30T15:48:52;2.53;;;1.60;;
8094;SDS011;4090;49.270;8.696;2022-07-30T15:51:34;1.50;;;1.40;;
8094;SDS011;4090;49.270;8.696;2022-07-30T15:54:18;3.65;;;1.70;;
8094;SDS011;4090;49.270;8.696;2022-07-30T15:57:02;2.35;;;1.52;;
8094;SDS011;4090;49.270;8.696;2022-07-30T15:59:44;1.80;;;1.70;;
8094;SDS011;4090;49.270;8.696;2022-07-30T16:02:27;2.13;;;1.63;;
8094;SDS011;4090;49.270;8.696;2022-07-30T16:05:09;2.17;;;1.60;;
8094;SDS011;4090;49.270;8.696;2022-07-30T16:07:51;2.33;;;1.80;;
8094;SDS011;4090;49.270;8.696;2022-07-30T16:10:33;1.80;;;1.70;;
8094;SDS011;4090;49.270;8.696;2022-07-30T16:13:15;1.80;;;1.70;;
8094;SDS011;4090;49.270;8.696;2022-07-30T16:15:57;1.70;;;1.60;;
8094;SDS011;4090;49.270;8.696;2022-07-30T16:18:40;1.60;;;1.50;;
8094;SDS011;4090;49.270;8.696;2022-07-30T16:21:22;3.45;;;1.50;;
8094;SDS011;4090;49.270;8.696;2022-07-30T16:24:04;1.40;;;1.30;;
8094;SDS011;4090;49.270;8.696;2022-07-30T16:26:46;1.50;;;1.40;;
8094;SDS011;4090;49.270;8.696;2022-07-30T16:29:29;1.80;;;1.58;;
8094;SDS011;4090;49.270;8.696;2022-07-30T16:32:11;4.45;;;1.60;;
8094;SDS011;4090;49.270;8.696;2022-07-30T16:34:54;1.55;;;1.45;;
8094;SDS011;4090;49.270;8.696;2022-07-30T16:37:36;1.42;;;1.33;;
8094;SDS011;4090;49.270;8.696;2022-07-30T16:40:18;1.98;;;1.65;;
8094;SDS011;4090;49.270;8.696;2022-07-30T16:43:00;3.55;;;1.60;;
8094;SDS011;4090;49.270;8.696;2022-07-30T16:45:42;2.90;;;1.52;;
8094;SDS011;4090;49.270;8.696;2022-07-30T16:48:23;2.03;;;1.40;;
8094;SDS011;4090;49.270;8.696;2022-07-30T16:51:07;1.60;;;1.50;;
8094;SDS011;4090;49.270;8.696;2022-07-30T16:53:48;4.80;;;1.85;;
8094;SDS011;4090;49.270;8.696;2022-07-30T16:56:31;1.55;;;1.45;;
8094;SDS011;4090;49.270;8.696;2022-07-30T16:59:12;1.50;;;1.40;;
8094;SDS011;4090;49.270;8.696;2022-07-30T17:01:56;3.53;;;2.00;;
8094;SDS011;4090;49.270;8.696;2022-07-30T17:04:38;2.40;;;2.17;;
8094;SDS011;4090;49.270;8.696;2022-07-30T17:07:21;3.25;;;2.05;;
8094;SDS011;4090;49.270;8.696;2022-07-30T17:10:04;3.55;;;2.00;;
8094;SDS011;4090;49.270;8.696;2022-07-30T17:12:46;2.78;;;1.60;;
8094;SDS011;4090;49.270;8.696;2022-07-30T17:15:28;2.42;;;2.13;;